sensor_id;sensor_type;location;lat;lon;timestamp;temperature;humidity
22224;DHT22;11281;52.194;21.006;2022-11-20T00:03:52;-3.40;99.90
22224;DHT22;11281;52.194;21.006;2022-11-20T00:08:15;-3.50;99.90
22224;DHT22;11281;52.194;21.006;2022-11-20T00:12:36;-3.40;99.90
22224;DHT22;11281;52.194;21.006;2022-11-20T00:16:58;-3.40;99.90
22224;DHT22;11281;52.194;21.006;2022-11-20T00:21:25;-3.40;99.90
22224;DHT22;11281;52.194;21.006;2022-11-20T00:25:48;-3.40;99.90
22224;DHT22;11281;52.194;21.006;2022-11-20T00:30:09;-3.40;99.90
22224;DHT22;11281;52.194;21.006;2022-11-20T00:34:31;-3.40;99.90
22224;DHT22;11281;52.194;21.006;2022-11-20T00:38:55;-3.50;99.90
22224;DHT22;11281;52.194;21.006;2022-11-20T00:43:18;-3.50;99.90
22224;DHT22;11281;52.194;21.006;2022-11-20T00:47:39;-3.50;99.90
22224;DHT22;11281;52.194;21.006;2022-11-20T00:52:01;-3.50;99.90
22224;DHT22;11281;52.194;21.006;2022-11-20T00:56:23;-3.50;99.90
22224;DHT22;11281;52.194;21.006;2022-11-20T01:00:45;-3.50;99.90
22224;DHT22;11281;52.194;21.006;2022-11-20T01:05:07;-3.30;99.90
22224;DHT22;11281;52.194;21.006;2022-11-20T01:09:28;-3.40;99.90
22224;DHT22;11281;52.194;21.006;2022-11-20T01:13:51;-3.30;99.90
22224;DHT22;11281;52.194;21.006;2022-11-20T01:18:14;-3.30;99.90
22224;DHT22;11281;52.194;21.006;2022-11-20T01:22:35;-3.20;99.90
22224;DHT22;11281;52.194;21.006;2022-11-20T01:26:57;-3.20;99.90
22224;DHT22;11281;52.194;21.006;2022-11-20T01:31:24;-3.20;99.90
22224;DHT22;11281;52.194;21.006;2022-11-20T01:35:46;-3.20;99.90
22224;DHT22;11281;52.194;21.006;2022-11-20T01:40:08;-3.20;99.90
22224;DHT22;11281;52.194;21.006;2022-11-20T01:45:00;-3.20;99.90
22224;DHT22;11281;52.194;21.006;2022-11-20T01:49:40;-3.10;99.90
22224;DHT22;11281;52.194;21.006;2022-11-20T01:54:07;-3.10;99.90
22224;DHT22;11281;52.194;21.006;2022-11-20T01:58:33;-3.10;99.90
22224;DHT22;11281;52.194;21.006;2022-11-20T02:03:00;-3.20;99.90
22224;DHT22;11281;52.194;21.006;2022-11-20T02:07:31;-3.20;99.90
22224;DHT22;11281;52.194;21.006;2022-11-20T02:11:53;-3.20;99.90
22224;DHT22;11281;52.194;21.006;2022-11-20T02:16:27;-3.20;99.90
22224;DHT22;11281;52.194;21.006;2022-11-20T02:20:57;-3.30;99.90
22224;DHT22;11281;52.194;21.006;2022-11-20T02:25:22;-3.20;99.90
22224;DHT22;11281;52.194;21.006;2022-11-20T02:29:57;-3.20;99.90
22224;DHT22;11281;52.194;21.006;2022-11-20T02:34:22;-3.10;99.90
22224;DHT22;11281;52.194;21.006;2022-11-20T02:38:44;-3.10;99.90
22224;DHT22;11281;52.194;21.006;2022-11-20T02:43:05;-3.10;99.90
22224;DHT22;11281;52.194;21.006;2022-11-20T02:47:27;-2.90;99.90
22224;DHT22;11281;52.194;21.006;2022-11-20T02:51:49;-3.00;99.90
22224;DHT22;11281;52.194;21.006;2022-11-20T02:56:10;-2.90;99.90
22224;DHT22;11281;52.194;21.006;2022-11-20T03:00:32;-2.90;99.90
22224;DHT22;11281;52.194;21.006;2022-11-20T03:04:54;-2.80;99.90
22224;DHT22;11281;52.194;21.006;2022-11-20T03:09:16;-2.80;99.90
22224;DHT22;11281;52.194;21.006;2022-11-20T03:13:38;-2.80;99.90
22224;DHT22;11281;52.194;21.006;2022-11-20T03:18:00;-2.90;99.90
22224;DHT22;11281;52.194;21.006;2022-11-20T03:22:21;-2.90;99.90
22224;DHT22;11281;52.194;21.006;2022-11-20T03:26:43;-2.80;99.90
22224;DHT22;11281;52.194;21.006;2022-11-20T03:31:10;-2.90;99.90
22224;DHT22;11281;52.194;21.006;2022-11-20T03:35:33;-2.90;99.90
22224;DHT22;11281;52.194;21.006;2022-11-20T03:39:54;-2.90;99.90
22224;DHT22;11281;52.194;21.006;2022-11-20T03:44:16;-2.90;99.90
22224;DHT22;11281;52.194;21.006;2022-11-20T03:48:38;-2.90;99.90
22224;DHT22;11281;52.194;21.006;2022-11-20T03:53:00;-2.90;99.90
22224;DHT22;11281;52.194;21.006;2022-11-20T03:57:21;-3.00;99.90
22224;DHT22;11281;52.194;21.006;2022-11-20T04:01:43;-3.00;99.90
22224;DHT22;11281;52.194;21.006;2022-11-20T04:06:13;-2.90;99.90
22224;DHT22;11281;52.194;21.006;2022-11-20T04:10:44;-2.90;99.90
22224;DHT22;11281;52.194;21.006;2022-11-20T04:15:06;-3.00;99.90
22224;DHT22;11281;52.194;21.006;2022-11-20T04:19:28;-3.00;99.90
22224;DHT22;11281;52.194;21.006;2022-11-20T04:23:51;-3.10;99.90
22224;DHT22;11281;52.194;21.006;2022-11-20T04:28:14;-3.10;99.90
22224;DHT22;11281;52.194;21.006;2022-11-20T04:32:35;-3.00;99.90
22224;DHT22;11281;52.194;21.006;2022-11-20T04:36:57;-3.20;99.90
22224;DHT22;11281;52.194;21.006;2022-11-20T04:41:20;-3.20;99.90
22224;DHT22;11281;52.194;21.006;2022-11-20T04:45:42;-3.20;99.90
22224;DHT22;11281;52.194;21.006;2022-11-20T04:50:04;-3.30;99.90
22224;DHT22;11281;52.194;21.006;2022-11-20T04:54:27;-3.30;99.90
22224;DHT22;11281;52.194;21.006;2022-11-20T04:58:48;-3.30;99.90
22224;DHT22;11281;52.194;21.006;2022-11-20T05:03:10;-3.30;99.90
22224;DHT22;11281;52.194;21.006;2022-11-20T05:07:32;-3.40;99.90
22224;DHT22;11281;52.194;21.006;2022-11-20T05:11:54;-3.30;99.90
22224;DHT22;11281;52.194;21.006;2022-11-20T05:16:18;-3.40;99.90
22224;DHT22;11281;52.194;21.006;2022-11-20T05:20:41;-3.40;99.90
22224;DHT22;11281;52.194;21.006;2022-11-20T05:25:02;-3.40;99.90
22224;DHT22;11281;52.194;21.006;2022-11-20T05:29:24;-3.50;99.90
22224;DHT22;11281;52.194;21.006;2022-11-20T05:33:46;-3.80;99.90
22224;DHT22;11281;52.194;21.006;2022-11-20T05:38:08;-3.80;99.90
22224;DHT22;11281;52.194;21.006;2022-11-20T05:42:30;-4.00;99.90
22224;DHT22;11281;52.194;21.006;2022-11-20T05:46:52;-4.10;99.90
22224;DHT22;11281;52.194;21.006;2022-11-20T05:51:17;-4.10;99.90
22224;DHT22;11281;52.194;21.006;2022-11-20T05:55:39;-4.10;99.90
22224;DHT22;11281;52.194;21.006;2022-11-20T06:00:02;-4.20;99.90
22224;DHT22;11281;52.194;21.006;2022-11-20T06:04:24;-4.30;99.90
22224;DHT22;11281;52.194;21.006;2022-11-20T06:08:46;-4.40;99.90
22224;DHT22;11281;52.194;21.006;2022-11-20T06:13:08;-4.50;99.90
22224;DHT22;11281;52.194;21.006;2022-11-20T06:17:30;-4.50;99.90
22224;DHT22;11281;52.194;21.006;2022-11-20T06:21:52;-4.60;99.90
22224;DHT22;11281;52.194;21.006;2022-11-20T06:26:16;-4.60;99.90
22224;DHT22;11281;52.194;21.006;2022-11-20T06:30:45;-4.50;99.90
22224;DHT22;11281;52.194;21.006;2022-11-20T06:35:07;-4.40;99.90
22224;DHT22;11281;52.194;21.006;2022-11-20T06:39:29;-4.40;99.90
22224;DHT22;11281;52.194;21.006;2022-11-20T06:43:51;-4.30;99.90
22224;DHT22;11281;52.194;21.006;2022-11-20T06:48:13;-4.10;99.90
22224;DHT22;11281;52.194;21.006;2022-11-20T06:52:35;-4.00;99.90
22224;DHT22;11281;52.194;21.006;2022-11-20T06:56:56;-3.90;99.90
22224;DHT22;11281;52.194;21.006;2022-11-20T07:01:18;-3.60;99.90
22224;DHT22;11281;52.194;21.006;2022-11-20T07:05:40;-3.60;99.90
22224;DHT22;11281;52.194;21.006;2022-11-20T07:10:02;-3.40;99.90
22224;DHT22;11281;52.194;21.006;2022-11-20T07:14:24;-3.30;99.90
22224;DHT22;11281;52.194;21.006;2022-11-20T07:18:45;-3.10;99.90
22224;DHT22;11281;52.194;21.006;2022-11-20T07:23:07;-3.00;99.90
22224;DHT22;11281;52.194;21.006;2022-11-20T07:27:29;-3.00;99.90
22224;DHT22;11281;52.194;21.006;2022-11-20T07:31:51;-3.30;99.90
22224;DHT22;11281;52.194;21.006;2022-11-20T07:36:13;-3.50;99.90
22224;DHT22;11281;52.194;21.006;2022-11-20T07:40:35;-3.60;99.90
22224;DHT22;11281;52.194;21.006;2022-11-20T07:44:57;-3.70;99.90
22224;DHT22;11281;52.194;21.006;2022-11-20T07:49:18;-3.60;99.90
22224;DHT22;11281;52.194;21.006;2022-11-20T07:53:40;-3.50;99.90
22224;DHT22;11281;52.194;21.006;2022-11-20T07:58:02;-3.50;99.90
22224;DHT22;11281;52.194;21.006;2022-11-20T08:02:23;-3.40;99.90
22224;DHT22;11281;52.194;21.006;2022-11-20T08:06:45;-3.40;99.90
22224;DHT22;11281;52.194;21.006;2022-11-20T08:11:07;-3.30;99.90
22224;DHT22;11281;52.194;21.006;2022-11-20T08:15:49;-3.30;99.90
22224;DHT22;11281;52.194;21.006;2022-11-20T08:20:12;-3.20;99.90
22224;DHT22;11281;52.194;21.006;2022-11-20T08:24:33;-3.10;99.90
22224;DHT22;11281;52.194;21.006;2022-11-20T08:28:57;-3.00;99.90
22224;DHT22;11281;52.194;21.006;2022-11-20T08:33:19;-2.90;99.90
22224;DHT22;11281;52.194;21.006;2022-11-20T08:37:40;-2.80;99.90
22224;DHT22;11281;52.194;21.006;2022-11-20T08:42:07;-2.50;99.90
22224;DHT22;11281;52.194;21.006;2022-11-20T08:46:37;-2.50;99.90
22224;DHT22;11281;52.194;21.006;2022-11-20T08:51:00;-2.30;99.90
22224;DHT22;11281;52.194;21.006;2022-11-20T08:55:22;-2.10;99.90
22224;DHT22;11281;52.194;21.006;2022-11-20T08:59:44;-2.00;99.90
22224;DHT22;11281;52.194;21.006;2022-11-20T09:04:05;-2.00;99.90
22224;DHT22;11281;52.194;21.006;2022-11-20T09:08:28;-1.90;99.90
22224;DHT22;11281;52.194;21.006;2022-11-20T09:12:50;-1.90;99.90
22224;DHT22;11281;52.194;21.006;2022-11-20T09:17:12;-1.80;99.90
22224;DHT22;11281;52.194;21.006;2022-11-20T09:21:36;-1.80;99.90
22224;DHT22;11281;52.194;21.006;2022-11-20T09:25:57;-1.70;99.90
22224;DHT22;11281;52.194;21.006;2022-11-20T09:30:20;-1.60;99.90
22224;DHT22;11281;52.194;21.006;2022-11-20T09:34:42;-1.40;99.90
22224;DHT22;11281;52.194;21.006;2022-11-20T09:39:04;-1.40;99.90
22224;DHT22;11281;52.194;21.006;2022-11-20T09:58:28;-1.30;99.90
22224;DHT22;11281;52.194;21.006;2022-11-20T10:32:00;-0.90;99.90
22224;DHT22;11281;52.194;21.006;2022-11-20T10:36:27;-0.90;99.90
22224;DHT22;11281;52.194;21.006;2022-11-20T10:40:57;-0.80;99.90
22224;DHT22;11281;52.194;21.006;2022-11-20T10:50:25;-0.60;99.90
22224;DHT22;11281;52.194;21.006;2022-11-20T10:55:06;-0.60;99.90
22224;DHT22;11281;52.194;21.006;2022-11-20T11:03:58;-0.30;99.90
22224;DHT22;11281;52.194;21.006;2022-11-20T11:08:20;-0.20;99.90
22224;DHT22;11281;52.194;21.006;2022-11-20T11:12:45;-0.10;99.90
22224;DHT22;11281;52.194;21.006;2022-11-20T11:21:55;0.00;99.90
22224;DHT22;11281;52.194;21.006;2022-11-20T11:26:20;0.00;99.90
22224;DHT22;11281;52.194;21.006;2022-11-20T11:30:44;0.00;99.90
22224;DHT22;11281;52.194;21.006;2022-11-20T11:35:25;0.00;99.90
22224;DHT22;11281;52.194;21.006;2022-11-20T11:39:48;0.10;99.90
22224;DHT22;11281;52.194;21.006;2022-11-20T11:49:08;0.20;99.90
22224;DHT22;11281;52.194;21.006;2022-11-20T11:53:40;0.30;99.90
22224;DHT22;11281;52.194;21.006;2022-11-20T12:03:00;0.30;99.90
22224;DHT22;11281;52.194;21.006;2022-11-20T12:13:02;0.40;99.90
22224;DHT22;11281;52.194;21.006;2022-11-20T12:17:27;0.30;99.90
22224;DHT22;11281;52.194;21.006;2022-11-20T12:36:44;0.30;99.90
22224;DHT22;11281;52.194;21.006;2022-11-20T12:41:24;0.30;99.90
22224;DHT22;11281;52.194;21.006;2022-11-20T13:06:16;0.10;99.90
22224;DHT22;11281;52.194;21.006;2022-11-20T13:10:46;0.00;99.90
22224;DHT22;11281;52.194;21.006;2022-11-20T13:20:05;-0.20;99.90
22224;DHT22;11281;52.194;21.006;2022-11-20T13:24:30;-0.10;99.90
22224;DHT22;11281;52.194;21.006;2022-11-20T13:29:11;-0.10;99.90
22224;DHT22;11281;52.194;21.006;2022-11-20T13:33:35;-0.10;99.90
22224;DHT22;11281;52.194;21.006;2022-11-20T13:38:11;-0.10;99.90
22224;DHT22;11281;52.194;21.006;2022-11-20T13:42:44;-0.20;99.90
22224;DHT22;11281;52.194;21.006;2022-11-20T13:47:24;-0.20;99.90
22224;DHT22;11281;52.194;21.006;2022-11-20T13:51:49;-0.20;99.90
22224;DHT22;11281;52.194;21.006;2022-11-20T14:01:09;-0.10;99.90
22224;DHT22;11281;52.194;21.006;2022-11-20T14:05:59;0.00;99.90
22224;DHT22;11281;52.194;21.006;2022-11-20T14:10:27;0.00;99.90
22224;DHT22;11281;52.194;21.006;2022-11-20T14:14:52;0.00;99.90
22224;DHT22;11281;52.194;21.006;2022-11-20T14:23:42;0.00;99.90
22224;DHT22;11281;52.194;21.006;2022-11-20T14:28:04;-0.10;99.90
22224;DHT22;11281;52.194;21.006;2022-11-20T14:32:28;0.00;99.90
22224;DHT22;11281;52.194;21.006;2022-11-20T14:36:58;-0.20;99.90
22224;DHT22;11281;52.194;21.006;2022-11-20T14:41:23;-0.20;99.90
22224;DHT22;11281;52.194;21.006;2022-11-20T14:45:52;-0.20;99.90
22224;DHT22;11281;52.194;21.006;2022-11-20T14:50:28;-0.30;99.90
22224;DHT22;11281;52.194;21.006;2022-11-20T14:54:55;-0.30;99.90
22224;DHT22;11281;52.194;21.006;2022-11-20T14:59:25;-0.30;99.90
22224;DHT22;11281;52.194;21.006;2022-11-20T15:04:15;-0.40;99.90
22224;DHT22;11281;52.194;21.006;2022-11-20T15:08:37;-0.50;99.90
22224;DHT22;11281;52.194;21.006;2022-11-20T15:13:32;-0.60;99.90
22224;DHT22;11281;52.194;21.006;2022-11-20T15:17:56;-0.60;99.90
22224;DHT22;11281;52.194;21.006;2022-11-20T15:22:18;-0.50;99.90
22224;DHT22;11281;52.194;21.006;2022-11-20T15:26:40;-0.50;99.90
22224;DHT22;11281;52.194;21.006;2022-11-20T15:31:03;-0.40;99.90
22224;DHT22;11281;52.194;21.006;2022-11-20T15:35:25;-0.50;99.90
22224;DHT22;11281;52.194;21.006;2022-11-20T15:39:47;-0.50;99.90
22224;DHT22;11281;52.194;21.006;2022-11-20T15:44:09;-0.50;99.90
22224;DHT22;11281;52.194;21.006;2022-11-20T15:48:35;-0.60;99.90
22224;DHT22;11281;52.194;21.006;2022-11-20T15:52:59;-0.60;99.90
22224;DHT22;11281;52.194;21.006;2022-11-20T15:57:21;-0.60;99.90
22224;DHT22;11281;52.194;21.006;2022-11-20T16:01:42;-0.70;99.90
22224;DHT22;11281;52.194;21.006;2022-11-20T16:06:04;-0.80;99.90
22224;DHT22;11281;52.194;21.006;2022-11-20T16:10:26;-0.80;99.90
22224;DHT22;11281;52.194;21.006;2022-11-20T16:14:48;-1.00;99.90
22224;DHT22;11281;52.194;21.006;2022-11-20T16:19:36;-1.30;99.90
22224;DHT22;11281;52.194;21.006;2022-11-20T16:24:03;-1.40;99.90
22224;DHT22;11281;52.194;21.006;2022-11-20T16:28:26;-1.50;99.90
22224;DHT22;11281;52.194;21.006;2022-11-20T16:32:48;-1.30;99.90
22224;DHT22;11281;52.194;21.006;2022-11-20T16:37:09;-1.20;99.90
22224;DHT22;11281;52.194;21.006;2022-11-20T16:41:33;-1.30;99.90
22224;DHT22;11281;52.194;21.006;2022-11-20T16:45:55;-1.20;99.90
22224;DHT22;11281;52.194;21.006;2022-11-20T16:50:16;-1.30;99.90
22224;DHT22;11281;52.194;21.006;2022-11-20T16:54:38;-1.40;99.90
22224;DHT22;11281;52.194;21.006;2022-11-20T16:59:00;-1.40;99.90
22224;DHT22;11281;52.194;21.006;2022-11-20T17:03:22;-1.50;99.90
22224;DHT22;11281;52.194;21.006;2022-11-20T17:07:44;-1.70;99.90
22224;DHT22;11281;52.194;21.006;2022-11-20T17:12:06;-1.80;99.90
22224;DHT22;11281;52.194;21.006;2022-11-20T17:16:28;-1.70;99.90
22224;DHT22;11281;52.194;21.006;2022-11-20T17:20:51;-1.50;99.90
22224;DHT22;11281;52.194;21.006;2022-11-20T17:25:13;-1.30;99.90
22224;DHT22;11281;52.194;21.006;2022-11-20T17:29:35;-1.20;99.90
22224;DHT22;11281;52.194;21.006;2022-11-20T17:33:57;-1.20;99.90
22224;DHT22;11281;52.194;21.006;2022-11-20T17:38:20;-1.10;99.90
22224;DHT22;11281;52.194;21.006;2022-11-20T17:42:42;-1.10;99.90
22224;DHT22;11281;52.194;21.006;2022-11-20T17:47:04;-1.10;99.90
22224;DHT22;11281;52.194;21.006;2022-11-20T17:51:28;-1.10;99.90
22224;DHT22;11281;52.194;21.006;2022-11-20T17:55:54;-1.10;99.90
22224;DHT22;11281;52.194;21.006;2022-11-20T18:00:35;-1.20;99.90
22224;DHT22;11281;52.194;21.006;2022-11-20T18:04:57;-1.10;99.90
22224;DHT22;11281;52.194;21.006;2022-11-20T18:09:19;-1.10;99.90
22224;DHT22;11281;52.194;21.006;2022-11-20T18:13:42;-1.20;99.90
22224;DHT22;11281;52.194;21.006;2022-11-20T18:18:23;-1.20;99.90
22224;DHT22;11281;52.194;21.006;2022-11-20T18:22:45;-1.30;99.90
22224;DHT22;11281;52.194;21.006;2022-11-20T18:27:11;-1.40;99.90
22224;DHT22;11281;52.194;21.006;2022-11-20T18:31:35;-1.40;99.90
22224;DHT22;11281;52.194;21.006;2022-11-20T18:35:57;-1.40;99.90
22224;DHT22;11281;52.194;21.006;2022-11-20T18:40:19;-1.50;99.90
22224;DHT22;11281;52.194;21.006;2022-11-20T18:44:41;-1.50;99.90
22224;DHT22;11281;52.194;21.006;2022-11-20T18:49:12;-1.50;99.90
22224;DHT22;11281;52.194;21.006;2022-11-20T18:53:34;-1.50;99.90
22224;DHT22;11281;52.194;21.006;2022-11-20T18:57:56;-1.50;99.90
22224;DHT22;11281;52.194;21.006;2022-11-20T19:02:19;-1.60;99.90
22224;DHT22;11281;52.194;21.006;2022-11-20T19:06:43;-1.60;99.90
22224;DHT22;11281;52.194;21.006;2022-11-20T19:11:07;-1.70;99.90
22224;DHT22;11281;52.194;21.006;2022-11-20T19:15:31;-1.70;99.90
22224;DHT22;11281;52.194;21.006;2022-11-20T19:19:54;-1.70;99.90
22224;DHT22;11281;52.194;21.006;2022-11-20T19:24:16;-1.70;99.90
22224;DHT22;11281;52.194;21.006;2022-11-20T19:28:37;-1.80;99.90
22224;DHT22;11281;52.194;21.006;2022-11-20T19:33:00;-2.00;99.90
22224;DHT22;11281;52.194;21.006;2022-11-20T19:37:22;-2.20;99.90
22224;DHT22;11281;52.194;21.006;2022-11-20T19:41:45;-2.40;99.90
22224;DHT22;11281;52.194;21.006;2022-11-20T19:46:07;-2.50;99.90
22224;DHT22;11281;52.194;21.006;2022-11-20T19:50:30;-2.60;99.90
22224;DHT22;11281;52.194;21.006;2022-11-20T19:54:52;-2.60;99.90
22224;DHT22;11281;52.194;21.006;2022-11-20T19:59:14;-2.70;99.90
22224;DHT22;11281;52.194;21.006;2022-11-20T20:03:36;-2.70;99.90
22224;DHT22;11281;52.194;21.006;2022-11-20T20:07:58;-2.80;99.90
22224;DHT22;11281;52.194;21.006;2022-11-20T20:12:21;-2.80;99.90
22224;DHT22;11281;52.194;21.006;2022-11-20T20:16:43;-2.80;99.90
22224;DHT22;11281;52.194;21.006;2022-11-20T20:21:07;-2.80;99.90
22224;DHT22;11281;52.194;21.006;2022-11-20T20:25:30;-2.80;99.90
22224;DHT22;11281;52.194;21.006;2022-11-20T20:29:52;-2.90;99.90
22224;DHT22;11281;52.194;21.006;2022-11-20T20:34:13;-3.00;99.90
22224;DHT22;11281;52.194;21.006;2022-11-20T20:38:35;-2.80;99.90
22224;DHT22;11281;52.194;21.006;2022-11-20T20:42:57;-2.60;99.90
22224;DHT22;11281;52.194;21.006;2022-11-20T20:47:19;-2.30;99.90
22224;DHT22;11281;52.194;21.006;2022-11-20T20:51:41;-2.20;99.90
22224;DHT22;11281;52.194;21.006;2022-11-20T20:56:03;-2.10;99.90
22224;DHT22;11281;52.194;21.006;2022-11-20T21:00:24;-2.10;99.90
22224;DHT22;11281;52.194;21.006;2022-11-20T21:04:46;-2.20;99.90
22224;DHT22;11281;52.194;21.006;2022-11-20T21:09:08;-2.30;99.90
22224;DHT22;11281;52.194;21.006;2022-11-20T21:13:31;-2.40;99.90
22224;DHT22;11281;52.194;21.006;2022-11-20T21:17:54;-2.50;99.90
22224;DHT22;11281;52.194;21.006;2022-11-20T21:22:16;-2.70;99.90
22224;DHT22;11281;52.194;21.006;2022-11-20T21:26:37;-2.90;99.90
22224;DHT22;11281;52.194;21.006;2022-11-20T21:31:22;-2.90;99.90
22224;DHT22;11281;52.194;21.006;2022-11-20T21:35:47;-2.70;99.90
22224;DHT22;11281;52.194;21.006;2022-11-20T21:40:09;-2.60;99.90
22224;DHT22;11281;52.194;21.006;2022-11-20T21:44:30;-2.50;99.90
22224;DHT22;11281;52.194;21.006;2022-11-20T21:48:52;-2.30;99.90
22224;DHT22;11281;52.194;21.006;2022-11-20T21:53:14;-2.20;99.90
22224;DHT22;11281;52.194;21.006;2022-11-20T21:57:36;-2.10;99.90
22224;DHT22;11281;52.194;21.006;2022-11-20T22:01:57;-2.00;99.90
22224;DHT22;11281;52.194;21.006;2022-11-20T22:06:20;-2.00;99.90
22224;DHT22;11281;52.194;21.006;2022-11-20T22:10:42;-2.00;99.90
22224;DHT22;11281;52.194;21.006;2022-11-20T22:15:04;-1.90;99.90
22224;DHT22;11281;52.194;21.006;2022-11-20T22:19:26;-1.90;99.90
22224;DHT22;11281;52.194;21.006;2022-11-20T22:23:48;-1.80;99.90
22224;DHT22;11281;52.194;21.006;2022-11-20T22:28:10;-1.80;99.90
22224;DHT22;11281;52.194;21.006;2022-11-20T22:32:32;-1.80;99.90
22224;DHT22;11281;52.194;21.006;2022-11-20T22:36:53;-1.80;99.90
22224;DHT22;11281;52.194;21.006;2022-11-20T22:41:18;-1.70;99.90
22224;DHT22;11281;52.194;21.006;2022-11-20T22:45:41;-1.70;99.90
22224;DHT22;11281;52.194;21.006;2022-11-20T22:50:03;-1.70;99.90
22224;DHT22;11281;52.194;21.006;2022-11-20T22:54:25;-1.60;99.90
22224;DHT22;11281;52.194;21.006;2022-11-20T22:58:49;-1.60;99.90
22224;DHT22;11281;52.194;21.006;2022-11-20T23:03:12;-1.50;99.90
22224;DHT22;11281;52.194;21.006;2022-11-20T23:07:33;-1.70;99.90
22224;DHT22;11281;52.194;21.006;2022-11-20T23:11:55;-1.80;99.90
22224;DHT22;11281;52.194;21.006;2022-11-20T23:16:18;-2.10;99.90
22224;DHT22;11281;52.194;21.006;2022-11-20T23:20:43;-2.30;99.90
22224;DHT22;11281;52.194;21.006;2022-11-20T23:25:05;-2.40;99.90
22224;DHT22;11281;52.194;21.006;2022-11-20T23:29:28;-2.60;99.90
22224;DHT22;11281;52.194;21.006;2022-11-20T23:33:49;-2.80;99.90
22224;DHT22;11281;52.194;21.006;2022-11-20T23:38:11;-3.00;99.90
22224;DHT22;11281;52.194;21.006;2022-11-20T23:42:33;-3.00;99.90
22224;DHT22;11281;52.194;21.006;2022-11-20T23:46:55;-3.20;99.90
22224;DHT22;11281;52.194;21.006;2022-11-20T23:51:16;-3.30;99.90
22224;DHT22;11281;52.194;21.006;2022-11-20T23:55:39;-3.40;99.90
